createdAt,value
2018-08-25T00:00:39.874Z,15.26
2018-08-25T00:01:48.521Z,15.22
2018-08-25T00:02:57.167Z,15.25
2018-08-25T00:04:05.825Z,15.26
2018-08-25T00:05:14.722Z,15.32
2018-08-25T00:06:23.366Z,15.3
2018-08-25T00:07:32.010Z,15.32
2018-08-25T00:08:40.664Z,15.32
2018-08-25T00:09:49.303Z,15.37
2018-08-25T00:10:57.949Z,15.36
2018-08-25T00:12:06.594Z,15.37
2018-08-25T00:13:15.243Z,15.45
2018-08-25T00:14:24.148Z,15.44
2018-08-25T00:15:32.798Z,15.37
2018-08-25T00:16:41.443Z,15.57
2018-08-25T00:17:50.092Z,15.57
2018-08-25T00:18:58.736Z,15.48
2018-08-25T00:20:07.378Z,15.59
2018-08-25T00:21:16.020Z,15.51
2018-08-25T00:22:24.660Z,15.57
2018-08-25T00:23:33.310Z,15.5
2018-08-25T00:24:41.953Z,15.51
2018-08-25T00:25:50.604Z,15.54
2018-08-25T00:26:59.503Z,15.45
2018-08-25T00:28:08.150Z,15.39
2018-08-25T00:29:16.798Z,15.45
2018-08-25T00:30:25.442Z,15.47
2018-08-25T00:31:34.082Z,15.37
2018-08-25T00:32:42.732Z,15.39
2018-08-25T00:33:51.377Z,15.37
2018-08-25T00:35:00.294Z,15.35
2018-08-25T00:36:08.932Z,15.39
2018-08-25T00:37:17.577Z,15.27
2018-08-25T00:38:26.226Z,15.26
2018-08-25T00:39:34.872Z,15.25
2018-08-25T00:40:43.520Z,15.25
2018-08-25T00:41:52.434Z,15.23
2018-08-25T00:43:01.344Z,15.19
2018-08-25T00:44:09.991Z,15.22
2018-08-25T00:45:18.639Z,15.18
2018-08-25T00:46:27.544Z,15.18
2018-08-25T00:47:36.494Z,15.15
2018-08-25T00:48:45.706Z,15.14
2018-08-25T00:49:54.363Z,15.15
2018-08-25T00:51:03.266Z,15.15
2018-08-25T00:52:12.170Z,15.08
2018-08-25T00:53:20.818Z,15.07
2018-08-25T00:54:29.463Z,15.02
2018-08-25T00:55:38.107Z,15.04
2018-08-25T00:56:46.749Z,15.02
2018-08-25T00:57:55.389Z,14.96
2018-08-25T00:59:04.030Z,15
2018-08-25T01:00:12.684Z,14.94
2018-08-25T01:01:21.324Z,14.9
2018-08-25T01:02:29.976Z,14.9
2018-08-25T01:03:38.608Z,14.87
2018-08-25T01:04:47.260Z,14.92
2018-08-25T01:05:55.903Z,14.78
2018-08-25T01:07:04.552Z,14.7
2018-08-25T01:08:13.186Z,14.85
2018-08-25T01:09:21.841Z,14.73
2018-08-25T01:10:30.494Z,14.73
2018-08-25T01:11:39.137Z,14.67
2018-08-25T01:12:47.772Z,14.79
2018-08-25T01:13:56.418Z,14.74
2018-08-25T01:15:05.072Z,14.73
2018-08-25T01:16:13.716Z,14.71
2018-08-25T01:17:22.371Z,14.71
2018-08-25T01:18:31.012Z,14.81
2018-08-25T01:19:39.661Z,14.81
2018-08-25T01:20:48.297Z,14.85
2018-08-25T01:21:56.951Z,14.74
2018-08-25T01:23:05.587Z,14.79
2018-08-25T01:24:14.241Z,14.7
2018-08-25T01:25:22.885Z,14.74
2018-08-25T01:26:31.540Z,14.77
2018-08-25T01:27:40.176Z,14.66
2018-08-25T01:28:48.823Z,14.67
2018-08-25T01:29:57.465Z,14.63
2018-08-25T01:31:06.119Z,14.66
2018-08-25T01:32:14.768Z,14.66
2018-08-25T01:33:23.674Z,14.62
2018-08-25T01:34:32.319Z,14.56
2018-08-25T01:35:40.962Z,14.53
2018-08-25T01:36:49.616Z,14.55
2018-08-25T01:37:58.255Z,14.49
2018-08-25T01:39:06.906Z,14.49
2018-08-25T01:40:15.805Z,14.52
2018-08-25T01:41:24.724Z,14.43
2018-08-25T01:42:33.624Z,14.41
2018-08-25T01:43:42.274Z,14.43
2018-08-25T01:44:50.956Z,14.44
2018-08-25T01:45:59.564Z,14.48
2018-08-25T01:47:08.467Z,14.4
2018-08-25T01:48:17.114Z,14.41
2018-08-25T01:49:25.774Z,14.43
2018-08-25T01:50:34.401Z,14.41
2018-08-25T01:51:43.050Z,14.43
2018-08-25T01:52:51.698Z,14.45
2018-08-25T01:54:00.346Z,14.4
2018-08-25T01:55:09.503Z,14.4
2018-08-25T01:56:18.152Z,14.43
2018-08-25T01:57:26.799Z,14.41
2018-08-25T01:58:35.694Z,14.44
2018-08-25T01:59:44.346Z,14.49
2018-08-25T02:00:52.985Z,14.44
2018-08-25T02:02:02.164Z,14.45
2018-08-25T02:03:10.796Z,14.45
2018-08-25T02:04:19.449Z,14.43
2018-08-25T02:05:28.347Z,14.43
2018-08-25T02:06:36.994Z,14.43
2018-08-25T02:07:45.894Z,14.48
2018-08-25T02:08:54.539Z,14.41
2018-08-25T02:10:03.189Z,14.43
2018-08-25T02:11:11.835Z,14.45
2018-08-25T02:12:20.481Z,14.44
2018-08-25T02:13:29.118Z,14.44
2018-08-25T02:14:38.038Z,14.4
2018-08-25T02:15:46.942Z,14.4
2018-08-25T02:16:55.595Z,14.43
2018-08-25T02:18:04.230Z,14.41
2018-08-25T02:19:12.878Z,14.45
2018-08-25T02:20:21.517Z,14.55
2018-08-25T02:21:30.173Z,14.55
2018-08-25T02:22:38.808Z,14.51
2018-08-25T02:23:47.452Z,14.52
2018-08-25T02:24:56.357Z,14.56
2018-08-25T02:26:05.010Z,14.59
2018-08-25T02:27:13.656Z,14.62
2018-08-25T02:28:22.385Z,14.7
2018-08-25T02:29:31.362Z,14.66
2018-08-25T02:30:40.262Z,14.63
2018-08-25T02:31:49.188Z,14.71
2018-08-25T02:32:57.816Z,14.66
2018-08-25T02:34:06.461Z,14.71
2018-08-25T02:35:15.097Z,14.73
2018-08-25T02:36:24.015Z,14.79
2018-08-25T02:37:32.657Z,14.71
2018-08-25T02:38:41.338Z,14.77
2018-08-25T02:39:49.945Z,14.82
2018-08-25T02:40:58.599Z,14.85
2018-08-25T02:42:07.238Z,14.77
2018-08-25T02:43:15.886Z,14.93
2018-08-25T02:44:24.530Z,14.79
2018-08-25T02:45:33.169Z,14.74
2018-08-25T02:46:41.818Z,14.93
2018-08-25T02:47:50.465Z,14.79
2018-08-25T02:48:59.111Z,14.81
2018-08-25T02:50:07.747Z,14.82
2018-08-25T02:51:16.396Z,14.78
2018-08-25T02:52:25.034Z,14.71
2018-08-25T02:53:33.685Z,14.77
2018-08-25T02:54:42.324Z,14.74
2018-08-25T02:55:50.972Z,14.66
2018-08-25T02:56:59.615Z,14.63
2018-08-25T02:58:08.529Z,14.62
2018-08-25T02:59:17.437Z,14.7
2018-08-25T03:00:26.091Z,14.7
2018-08-25T03:01:34.731Z,14.67
2018-08-25T03:02:43.381Z,14.68
2018-08-25T03:03:52.027Z,14.92
2018-08-25T03:05:00.930Z,14.87
2018-08-25T03:06:10.116Z,14.89
2018-08-25T03:07:18.758Z,14.9
2018-08-25T03:08:27.406Z,14.87
2018-08-25T03:09:36.052Z,14.96
2018-08-25T03:10:44.970Z,14.94
2018-08-25T03:11:53.608Z,14.94
2018-08-25T03:13:02.261Z,14.96
2018-08-25T03:14:11.176Z,14.87
2018-08-25T03:15:19.822Z,14.89
2018-08-25T03:16:28.721Z,14.9
2018-08-25T03:17:37.370Z,14.94
2018-08-25T03:18:46.014Z,14.87
2018-08-25T03:19:54.662Z,14.89
2018-08-25T03:21:03.301Z,14.74
2018-08-25T03:22:11.947Z,14.62
2018-08-25T03:23:20.594Z,14.49
2018-08-25T03:24:29.235Z,14.49
2018-08-25T03:25:37.886Z,14.38
2018-08-25T03:26:46.526Z,14.26
2018-08-25T03:27:55.171Z,14.22
2018-08-25T03:29:03.817Z,14.23
2018-08-25T03:30:12.993Z,14.08
2018-08-25T03:31:21.902Z,14.11
2018-08-25T03:32:30.557Z,14.04
2018-08-25T03:33:39.462Z,13.94
2018-08-25T03:34:48.111Z,13.86
2018-08-25T03:35:56.752Z,13.8
2018-08-25T03:37:05.662Z,13.67
2018-08-25T03:38:14.302Z,13.71
2018-08-25T03:39:22.949Z,13.67
2018-08-25T03:40:31.591Z,13.57
2018-08-25T03:41:40.236Z,13.5
2018-08-25T03:42:48.876Z,13.42
2018-08-25T03:43:57.782Z,13.42
2018-08-25T03:45:06.431Z,13.33
2018-08-25T03:46:15.076Z,13.31
2018-08-25T03:47:23.719Z,13.19
2018-08-25T03:48:32.620Z,13.17
2018-08-25T03:49:41.273Z,13.24
2018-08-25T03:50:49.914Z,13.16
2018-08-25T03:51:58.817Z,13.19
2018-08-25T03:53:07.456Z,13.16
2018-08-25T03:54:16.100Z,13.11
2018-08-25T03:55:24.795Z,13.16
2018-08-25T03:56:33.386Z,13.05
2018-08-25T03:57:42.021Z,13.16
2018-08-25T03:58:50.664Z,13.01
2018-08-25T03:59:59.308Z,12.98
2018-08-25T04:01:07.952Z,13.06
2018-08-25T04:02:16.599Z,13.06
2018-08-25T04:03:25.502Z,13.03
2018-08-25T04:04:34.145Z,13.02
2018-08-25T04:05:42.790Z,13.03
2018-08-25T04:06:51.441Z,12.99
2018-08-25T04:08:00.607Z,13.01
2018-08-25T04:09:09.254Z,12.99
2018-08-25T04:10:17.904Z,13.05
2018-08-25T04:11:26.554Z,13.02
2018-08-25T04:12:35.461Z,13.03
2018-08-25T04:13:44.112Z,13.01
2018-08-25T04:14:52.820Z,13.02
2018-08-25T04:16:01.396Z,12.98
2018-08-25T04:17:10.303Z,13.02
2018-08-25T04:18:18.946Z,13.06
2018-08-25T04:19:27.585Z,13.03
2018-08-25T04:20:36.226Z,13.01
2018-08-25T04:21:44.875Z,13.06
2018-08-25T04:22:53.516Z,13.02
2018-08-25T04:24:02.160Z,13.02
2018-08-25T04:25:10.797Z,12.99
2018-08-25T04:26:19.451Z,13.05
2018-08-25T04:27:28.084Z,13.06
2018-08-25T04:28:36.728Z,13.01
2018-08-25T04:29:45.367Z,13.03
2018-08-25T04:30:54.011Z,13.01
2018-08-25T04:32:02.653Z,13.01
2018-08-25T04:33:11.299Z,13.03
2018-08-25T04:34:19.950Z,13.02
2018-08-25T04:35:29.139Z,13.01
2018-08-25T04:36:38.045Z,13.06
2018-08-25T04:37:46.691Z,13.11
2018-08-25T04:38:55.337Z,13.01
2018-08-25T04:40:04.240Z,13.03
2018-08-25T04:41:12.932Z,12.95
2018-08-25T04:42:21.530Z,13.05
2018-08-25T04:43:30.184Z,13.12
2018-08-25T04:44:38.825Z,13.11
2018-08-25T04:45:47.471Z,13.01
2018-08-25T04:46:56.113Z,13.02
2018-08-25T04:48:04.768Z,12.99
2018-08-25T04:49:13.408Z,13.01
2018-08-25T04:50:22.053Z,13.03
2018-08-25T04:51:30.692Z,13.06
2018-08-25T04:52:39.603Z,13.02
2018-08-25T04:53:48.243Z,13.01
2018-08-25T04:54:56.882Z,13.02
2018-08-25T04:56:05.524Z,12.99
2018-08-25T04:57:14.165Z,13.05
2018-08-25T04:58:22.819Z,13.01
2018-08-25T04:59:31.460Z,13.01
2018-08-25T05:00:40.373Z,13.16
2018-08-25T05:01:49.348Z,13.09
2018-08-25T05:02:57.993Z,13.12
2018-08-25T05:04:06.635Z,13.11
2018-08-25T05:05:15.281Z,13.13
2018-08-25T05:06:23.920Z,13.16
2018-08-25T05:07:32.589Z,13.09
2018-08-25T05:08:41.211Z,13.16
2018-08-25T05:09:49.861Z,13.11
2018-08-25T05:10:58.492Z,13.16
2018-08-25T05:12:07.138Z,13.17
2018-08-25T05:13:15.790Z,13.13
2018-08-25T05:14:24.434Z,13.16
2018-08-25T05:15:33.081Z,13.19
2018-08-25T05:16:41.716Z,13.21
2018-08-25T05:17:50.359Z,13.27
2018-08-25T05:18:58.997Z,13.26
2018-08-25T05:20:07.648Z,13.27
2018-08-25T05:21:16.280Z,13.27
2018-08-25T05:22:24.928Z,13.27
2018-08-25T05:23:33.567Z,13.3
2018-08-25T05:24:42.223Z,13.28
2018-08-25T05:25:50.859Z,13.28
2018-08-25T05:26:59.504Z,13.27
2018-08-25T05:28:08.144Z,13.27
2018-08-25T05:29:16.797Z,13.23
2018-08-25T05:30:25.441Z,13.31
2018-08-25T05:31:34.085Z,13.36
2018-08-25T05:32:42.727Z,13.31
2018-08-25T05:33:51.374Z,13.3
2018-08-25T05:35:00.294Z,13.31
2018-08-25T05:36:08.931Z,13.3
2018-08-25T05:37:17.839Z,13.31
2018-08-25T05:38:26.994Z,13.33
2018-08-25T05:39:35.647Z,13.36
2018-08-25T05:40:44.289Z,13.45
2018-08-25T05:41:52.937Z,13.37
2018-08-25T05:43:01.579Z,13.33
2018-08-25T05:44:10.279Z,13.31
2018-08-25T05:45:19.548Z,13.28
2018-08-25T05:46:28.460Z,13.27
2018-08-25T05:47:37.092Z,13.27
2018-08-25T05:48:45.737Z,13.24
2018-08-25T05:49:54.651Z,13.27
2018-08-25T05:51:03.288Z,13.26
2018-08-25T05:52:12.199Z,13.2
2018-08-25T05:53:20.853Z,13.19
2018-08-25T05:54:29.490Z,13.17
2018-08-25T05:55:38.139Z,13.21
2018-08-25T05:56:46.774Z,13.26
2018-08-25T05:57:55.427Z,13.26
2018-08-25T05:59:04.330Z,13.21
2018-08-25T06:00:13.241Z,13.23
2018-08-25T06:01:21.876Z,13.21
2018-08-25T06:02:30.532Z,13.26
2018-08-25T06:03:39.174Z,13.21
2018-08-25T06:04:48.081Z,13.28
2018-08-25T06:05:56.714Z,13.28
2018-08-25T06:07:05.360Z,13.3
2018-08-25T06:08:14.007Z,13.27
2018-08-25T06:09:22.652Z,13.26
2018-08-25T06:10:31.300Z,13.37
2018-08-25T06:11:40.196Z,13.36
2018-08-25T06:12:48.843Z,13.36
2018-08-25T06:13:57.480Z,13.33
2018-08-25T06:15:06.136Z,13.31
2018-08-25T06:16:14.768Z,13.36
2018-08-25T06:17:23.415Z,13.26
2018-08-25T06:18:32.324Z,13.31
2018-08-25T06:19:41.236Z,13.3
2018-08-25T06:20:50.147Z,13.3
2018-08-25T06:21:59.050Z,13.31
2018-08-25T06:23:07.692Z,13.33
2018-08-25T06:24:16.345Z,13.31
2018-08-25T06:25:24.988Z,13.33
2018-08-25T06:26:33.627Z,13.4
2018-08-25T06:27:42.271Z,13.42
2018-08-25T06:28:51.186Z,13.43
2018-08-25T06:29:59.848Z,13.45
2018-08-25T06:31:08.471Z,13.58
2018-08-25T06:32:17.121Z,13.58
2018-08-25T06:33:25.754Z,13.68
2018-08-25T06:34:34.413Z,13.71
2018-08-25T06:35:43.049Z,13.67
2018-08-25T06:36:51.708Z,13.68
2018-08-25T06:38:00.371Z,13.8
2018-08-25T06:39:09.312Z,13.8
2018-08-25T06:40:18.221Z,13.86
2018-08-25T06:41:26.866Z,13.87
2018-08-25T06:42:35.563Z,13.91
2018-08-25T06:43:44.496Z,13.93
2018-08-25T06:44:53.135Z,13.94
2018-08-25T06:46:01.783Z,13.91
2018-08-25T06:47:10.440Z,13.83
2018-08-25T06:48:19.074Z,13.76
2018-08-25T06:49:27.721Z,13.7
2018-08-25T06:50:36.365Z,13.75
2018-08-25T06:51:45.274Z,13.75
2018-08-25T06:52:53.912Z,13.65
2018-08-25T06:54:02.555Z,13.62
2018-08-25T06:55:11.197Z,13.65
2018-08-25T06:56:20.113Z,13.68
2018-08-25T06:57:28.751Z,13.6
2018-08-25T06:58:37.397Z,13.65
2018-08-25T06:59:46.043Z,13.8
2018-08-25T07:00:55.220Z,13.93
2018-08-25T07:02:03.863Z,13.91
2018-08-25T07:03:12.507Z,13.87
2018-08-25T07:04:21.412Z,13.83
2018-08-25T07:05:30.055Z,13.85
2018-08-25T07:06:38.703Z,13.76
2018-08-25T07:07:47.346Z,13.7
2018-08-25T07:08:55.990Z,13.67
2018-08-25T07:10:04.900Z,13.68
2018-08-25T07:11:13.543Z,13.64
2018-08-25T07:12:22.445Z,13.58
2018-08-25T07:13:31.093Z,13.6
2018-08-25T07:14:39.994Z,13.58
2018-08-25T07:15:48.643Z,13.71
2018-08-25T07:16:57.286Z,13.67
2018-08-25T07:18:05.932Z,13.82
2018-08-25T07:19:14.571Z,13.86
2018-08-25T07:20:23.215Z,13.87
2018-08-25T07:21:31.863Z,13.94
2018-08-25T07:22:40.508Z,13.98
2018-08-25T07:23:49.159Z,14.01
2018-08-25T07:24:57.797Z,14.11
2018-08-25T07:26:06.511Z,14.11
2018-08-25T07:27:15.097Z,14.13
2018-08-25T07:28:23.738Z,14.19
2018-08-25T07:29:32.378Z,14.23
2018-08-25T07:30:41.021Z,14.19
2018-08-25T07:31:49.667Z,14.22
2018-08-25T07:32:58.316Z,14.18
2018-08-25T07:34:06.954Z,14.23
2018-08-25T07:35:15.602Z,14.25
2018-08-25T07:36:24.242Z,14.31
2018-08-25T07:37:32.892Z,14.3
2018-08-25T07:38:41.536Z,14.25
2018-08-25T07:39:50.179Z,14.34
2018-08-25T07:40:58.821Z,14.3
2018-08-25T07:42:07.470Z,14.37
2018-08-25T07:43:16.376Z,14.28
2018-08-25T07:44:25.283Z,14.34
2018-08-25T07:45:33.930Z,14.26
2018-08-25T07:46:42.574Z,14.3
2018-08-25T07:47:51.224Z,14.44
2018-08-25T07:49:00.134Z,14.56
2018-08-25T07:50:09.049Z,14.62
2018-08-25T07:51:17.687Z,14.63
2018-08-25T07:52:26.340Z,14.71
2018-08-25T07:53:34.988Z,14.68
2018-08-25T07:54:43.904Z,14.94
2018-08-25T07:55:52.804Z,14.93
2018-08-25T07:57:01.446Z,15.05
2018-08-25T07:58:10.364Z,15.08
2018-08-25T07:59:19.347Z,14.86
2018-08-25T08:00:27.916Z,14.93
2018-08-25T08:01:36.553Z,14.74
2018-08-25T08:02:45.201Z,14.71
2018-08-25T08:03:53.840Z,14.71
2018-08-25T08:05:02.492Z,14.59
2018-08-25T08:06:11.130Z,14.38
2018-08-25T08:07:20.045Z,14.26
2018-08-25T08:08:28.946Z,14.2
2018-08-25T08:09:37.876Z,13.98
2018-08-25T08:10:46.515Z,13.89
2018-08-25T08:11:55.229Z,13.79
2018-08-25T08:13:04.694Z,13.68
2018-08-25T08:14:13.609Z,13.65
2018-08-25T08:15:22.250Z,13.61
2018-08-25T08:16:30.892Z,13.58
2018-08-25T08:17:39.530Z,13.49
2018-08-25T08:18:48.428Z,13.45
2018-08-25T08:19:57.081Z,13.43
2018-08-25T08:21:05.722Z,13.55
2018-08-25T08:22:14.369Z,13.55
2018-08-25T08:23:23.005Z,13.58
2018-08-25T08:24:31.661Z,13.6
2018-08-25T08:25:40.557Z,13.82
2018-08-25T08:26:49.206Z,13.83
2018-08-25T08:27:58.104Z,14
2018-08-25T08:29:06.754Z,14.13
2018-08-25T08:30:15.659Z,14.26
2018-08-25T08:31:24.309Z,14.44
2018-08-25T08:32:32.944Z,14.56
2018-08-25T08:33:41.589Z,14.62
2018-08-25T08:34:50.237Z,14.7
2018-08-25T08:35:58.882Z,14.9
2018-08-25T08:37:07.527Z,14.93
2018-08-25T08:38:16.165Z,14.89
2018-08-25T08:39:24.824Z,14.92
2018-08-25T08:40:33.453Z,14.93
2018-08-25T08:41:42.105Z,14.99
2018-08-25T08:42:50.745Z,15.14
2018-08-25T08:43:59.404Z,15.17
2018-08-25T08:45:08.033Z,15.29
2018-08-25T08:46:16.681Z,15.36
2018-08-25T08:47:25.377Z,15.27
2018-08-25T08:48:34.296Z,15.26
2018-08-25T08:49:47.405Z,15.19
2018-08-25T08:50:56.341Z,15.08
2018-08-25T08:52:04.989Z,14.94
2018-08-25T08:53:14.163Z,14.9
2018-08-25T08:54:22.811Z,14.61
2018-08-25T08:55:31.723Z,14.48
2018-08-25T08:56:40.365Z,14.31
2018-08-25T08:57:49.010Z,14.15
2018-08-25T08:58:57.916Z,14.08
2018-08-25T09:00:06.556Z,13.98
2018-08-25T09:01:15.483Z,13.85
2018-08-25T09:02:24.128Z,13.75
2018-08-25T09:03:32.905Z,13.68
2018-08-25T09:04:41.675Z,13.68
2018-08-25T09:05:50.321Z,13.61
2018-08-25T09:06:59.231Z,13.55
2018-08-25T09:08:07.884Z,13.52
2018-08-25T09:09:16.524Z,13.6
2018-08-25T09:10:25.170Z,13.49
2018-08-25T09:11:33.925Z,13.61
2018-08-25T09:12:42.468Z,13.67
2018-08-25T09:13:51.377Z,13.68
2018-08-25T09:15:00.018Z,13.68
2018-08-25T09:16:08.663Z,13.78
2018-08-25T09:17:17.580Z,13.86
2018-08-25T09:18:26.227Z,13.93
2018-08-25T09:19:34.867Z,13.86
2018-08-25T09:20:43.777Z,13.94
2018-08-25T09:21:52.417Z,13.89
2018-08-25T09:23:01.065Z,14.05
2018-08-25T09:24:09.703Z,14.07
2018-08-25T09:25:18.348Z,14.2
2018-08-25T09:26:26.989Z,14.33
2018-08-25T09:27:36.163Z,14.45
2018-08-25T09:28:44.799Z,14.52
2018-08-25T09:29:53.442Z,14.51
2018-08-25T09:31:02.084Z,14.55
2018-08-25T09:32:10.724Z,14.7
2018-08-25T09:33:19.377Z,14.78
2018-08-25T09:34:28.019Z,14.86
2018-08-25T09:35:36.667Z,14.96
2018-08-25T09:36:45.764Z,15
2018-08-25T09:37:54.262Z,15.04
2018-08-25T09:39:02.906Z,15
2018-08-25T09:40:11.552Z,14.99
2018-08-25T09:41:20.191Z,15.04
2018-08-25T09:42:28.842Z,15.05
2018-08-25T09:43:37.753Z,15.07
2018-08-25T09:44:46.665Z,15.05
2018-08-25T09:45:55.315Z,14.9
2018-08-25T09:47:04.061Z,14.78
2018-08-25T09:48:12.603Z,14.7
2018-08-25T09:49:21.517Z,14.66
2018-08-25T09:50:30.154Z,14.59
2018-08-25T09:51:38.803Z,14.55
2018-08-25T09:52:47.447Z,14.61
2018-08-25T09:53:56.095Z,14.63
2018-08-25T09:55:04.730Z,14.67
2018-08-25T09:56:13.385Z,14.74
2018-08-25T09:57:22.033Z,14.79
2018-08-25T09:58:30.680Z,14.87
2018-08-25T09:59:39.314Z,14.89
2018-08-25T10:00:47.970Z,15.04
2018-08-25T10:01:56.605Z,15.07
2018-08-25T10:03:05.254Z,15.26
2018-08-25T10:04:13.895Z,15.19
2018-08-25T10:05:22.628Z,15.22
2018-08-25T10:06:31.619Z,15.22
2018-08-25T10:07:40.266Z,15.1
2018-08-25T10:08:48.913Z,15.1
2018-08-25T10:09:57.558Z,15.14
2018-08-25T10:11:06.468Z,15.14
2018-08-25T10:12:15.381Z,15.23
2018-08-25T10:13:24.031Z,15.36
2018-08-25T10:14:32.943Z,15.43
2018-08-25T10:15:41.584Z,15.59
2018-08-25T10:16:50.316Z,15.57
2018-08-25T10:17:58.885Z,15.76
2018-08-25T10:19:07.788Z,15.85
2018-08-25T10:20:16.437Z,15.83
2018-08-25T10:21:25.081Z,15.84
2018-08-25T10:22:33.731Z,15.91
2018-08-25T10:23:42.459Z,15.88
2018-08-25T10:24:51.554Z,15.88
2018-08-25T10:26:00.462Z,15.9
2018-08-25T10:27:09.104Z,15.87
2018-08-25T10:28:18.021Z,15.81
2018-08-25T10:29:26.668Z,15.78
2018-08-25T10:30:35.313Z,15.84
2018-08-25T10:31:43.952Z,15.96
2018-08-25T10:32:52.603Z,16.09
2018-08-25T10:34:01.249Z,16.05
2018-08-25T10:35:09.895Z,16.16
2018-08-25T10:36:18.538Z,16.21
2018-08-25T10:37:27.193Z,16.31
2018-08-25T10:38:35.831Z,16.44
2018-08-25T10:39:44.744Z,16.58
2018-08-25T10:40:53.387Z,16.66
2018-08-25T10:42:02.042Z,16.8
2018-08-25T10:43:10.971Z,16.89
2018-08-25T10:44:19.901Z,16.98
2018-08-25T10:45:28.542Z,17.04
2018-08-25T10:46:37.178Z,17.09
2018-08-25T10:47:46.094Z,17.02
2018-08-25T10:48:54.734Z,16.97
2018-08-25T10:50:03.658Z,17.07
2018-08-25T10:51:12.300Z,17.05
2018-08-25T10:52:21.213Z,17.12
2018-08-25T10:53:29.853Z,17.23
2018-08-25T10:54:38.513Z,17.19
2018-08-25T10:55:47.147Z,17.19
2018-08-25T10:56:55.806Z,17.28
2018-08-25T10:58:04.450Z,17.22
2018-08-25T10:59:13.105Z,17.17
2018-08-25T11:00:21.854Z,17.09
2018-08-25T11:01:30.396Z,16.92
2018-08-25T11:02:39.305Z,16.95
2018-08-25T11:03:47.948Z,17.09
2018-08-25T11:04:56.606Z,17.09
2018-08-25T11:06:05.248Z,16.99
2018-08-25T11:07:14.163Z,16.92
2018-08-25T11:08:22.801Z,16.84
2018-08-25T11:09:31.455Z,16.66
2018-08-25T11:10:40.098Z,16.69
2018-08-25T11:11:48.747Z,16.68
2018-08-25T11:12:57.652Z,16.64
2018-08-25T11:14:06.311Z,16.58
2018-08-25T11:15:15.216Z,16.65
2018-08-25T11:16:23.895Z,16.87
2018-08-25T11:17:32.501Z,16.98
2018-08-25T11:18:41.151Z,16.99
2018-08-25T11:19:50.069Z,17.05
2018-08-25T11:20:58.981Z,17.1
2018-08-25T11:22:07.628Z,17.17
2018-08-25T11:23:16.263Z,17.3
2018-08-25T11:24:25.184Z,17.3
2018-08-25T11:25:33.825Z,17.41
2018-08-25T11:26:42.479Z,17.41
2018-08-25T11:27:51.115Z,17.44
2018-08-25T11:28:59.770Z,17.49
2018-08-25T11:30:08.413Z,17.52
2018-08-25T11:31:17.069Z,17.47
2018-08-25T11:32:25.706Z,17.38
2018-08-25T11:33:34.353Z,17.27
2018-08-25T11:34:42.997Z,17.32
2018-08-25T11:35:51.651Z,17.38
2018-08-25T11:37:00.563Z,17.32
2018-08-25T11:38:09.553Z,17.49
2018-08-25T11:39:18.114Z,17.5
2018-08-25T11:40:26.761Z,17.54
2018-08-25T11:41:35.680Z,17.6
2018-08-25T11:42:44.588Z,17.76
2018-08-25T11:43:53.241Z,17.78
2018-08-25T11:45:01.886Z,18.05
2018-08-25T11:46:10.526Z,18.15
2018-08-25T11:47:19.171Z,18.3
2018-08-25T11:48:27.820Z,18.39
2018-08-25T11:49:36.503Z,18.57
2018-08-25T11:50:45.382Z,18.66
2018-08-25T11:51:54.301Z,18.7
2018-08-25T11:53:03.210Z,18.61
2018-08-25T11:54:11.923Z,18.73
2018-08-25T11:55:20.506Z,18.64
2018-08-25T11:56:29.422Z,18.78
2018-08-25T11:57:38.065Z,18.89
2018-08-25T11:58:46.712Z,18.86
2018-08-25T11:59:55.360Z,18.68
2018-08-25T12:01:04.006Z,18.63
2018-08-25T12:02:12.722Z,18.68
2018-08-25T12:03:22.000Z,18.73
2018-08-25T12:04:30.622Z,18.58
2018-08-25T12:05:39.268Z,18.6
2018-08-25T12:06:47.915Z,18.57
2018-08-25T12:07:56.557Z,18.58
2018-08-25T12:09:05.208Z,18.55
2018-08-25T12:10:13.856Z,18.7
2018-08-25T12:11:22.503Z,18.71
2018-08-25T12:12:31.154Z,18.98
2018-08-25T12:13:39.799Z,19
2018-08-25T12:14:48.452Z,19.11
2018-08-25T12:15:57.096Z,19.23
2018-08-25T12:17:06.006Z,19.3
2018-08-25T12:18:14.911Z,19.37
2018-08-25T12:19:23.561Z,19.39
2018-08-25T12:20:32.735Z,19.29
2018-08-25T12:21:41.385Z,19.12
2018-08-25T12:22:50.037Z,19.04
2018-08-25T12:23:58.689Z,18.94
2018-08-25T12:25:07.324Z,18.98
2018-08-25T12:26:15.977Z,18.89
2018-08-25T12:27:24.619Z,18.91
2018-08-25T12:28:33.797Z,18.88
2018-08-25T12:29:42.442Z,18.82
2018-08-25T12:30:51.095Z,18.88
2018-08-25T12:31:59.747Z,18.91
2018-08-25T12:33:08.393Z,18.91
2018-08-25T12:34:17.039Z,18.92
2018-08-25T12:35:25.685Z,18.89
2018-08-25T12:36:34.347Z,18.91
2018-08-25T12:37:43.262Z,19.07
2018-08-25T12:38:52.169Z,19.04
2018-08-25T12:40:00.812Z,19.04
2018-08-25T12:41:09.471Z,19.11
2018-08-25T12:42:18.115Z,19.11
2018-08-25T12:43:26.816Z,19.11
2018-08-25T12:44:35.409Z,19.08
2018-08-25T12:45:44.066Z,19.3
2018-08-25T12:46:52.711Z,19.26
2018-08-25T12:48:01.362Z,19.26
2018-08-25T12:49:10.273Z,19.27
2018-08-25T12:50:18.924Z,19.27
2018-08-25T12:51:27.576Z,19.29
2018-08-25T12:52:36.227Z,19.15
2018-08-25T12:53:44.876Z,19.17
2018-08-25T12:54:53.523Z,19.23
2018-08-25T12:56:02.179Z,19.26
2018-08-25T12:57:11.083Z,19.35
2018-08-25T12:58:19.740Z,19.27
2018-08-25T12:59:28.379Z,19.19
2018-08-25T13:00:37.038Z,19.23
2018-08-25T13:01:45.763Z,19.3
2018-08-25T13:02:54.604Z,19.52
2018-08-25T13:04:03.241Z,19.44
2018-08-25T13:05:12.151Z,19.49
2018-08-25T13:06:20.800Z,19.47
2018-08-25T13:07:29.512Z,19.35
2018-08-25T13:08:38.393Z,19.19
2018-08-25T13:09:47.033Z,18.98
2018-08-25T13:10:55.679Z,18.82
2018-08-25T13:12:04.327Z,18.74
2018-08-25T13:13:12.984Z,18.53
2018-08-25T13:14:21.628Z,18.36
2018-08-25T13:15:30.283Z,18
2018-08-25T13:16:38.919Z,17.35
2018-08-25T13:17:47.580Z,16.74
2018-08-25T13:18:56.693Z,16.34
2018-08-25T13:20:05.234Z,15.48
2018-08-25T13:21:13.870Z,15.15
2018-08-25T13:22:22.525Z,14.89
2018-08-25T13:23:31.681Z,14.45
2018-08-25T13:24:40.233Z,14.13
2018-08-25T13:25:48.870Z,13.8
2018-08-25T13:26:57.519Z,13.67
2018-08-25T13:28:06.429Z,13.33
2018-08-25T13:29:15.077Z,13.27
2018-08-25T13:30:23.730Z,13.16
2018-08-25T13:31:32.629Z,13.21
2018-08-25T13:32:41.274Z,13.17
2018-08-25T13:33:49.913Z,13.24
2018-08-25T13:34:58.829Z,13.27
2018-08-25T13:36:07.462Z,13.13
2018-08-25T13:37:16.110Z,13.27
2018-08-25T13:38:24.755Z,13.28
2018-08-25T13:39:33.396Z,13.3
2018-08-25T13:40:42.049Z,13.33
2018-08-25T13:41:50.975Z,13.33
2018-08-25T13:42:59.877Z,13.31
2018-08-25T13:44:08.534Z,13.43
2018-08-25T13:45:17.537Z,13.31
2018-08-25T13:46:26.159Z,13.31
2018-08-25T13:47:34.806Z,13.19
2018-08-25T13:48:43.456Z,13.2
2018-08-25T13:49:52.352Z,13.3
2018-08-25T13:51:01.435Z,13.36
2018-08-25T13:52:09.976Z,13.37
2018-08-25T13:53:18.893Z,13.45
2018-08-25T13:54:27.531Z,13.52
2018-08-25T13:55:36.179Z,13.55
2018-08-25T13:56:45.083Z,13.65
2018-08-25T13:57:53.736Z,13.71
2018-08-25T13:59:02.635Z,13.73
2018-08-25T14:00:11.279Z,13.76
2018-08-25T14:01:19.922Z,13.8
2018-08-25T14:02:28.575Z,13.95
2018-08-25T14:03:37.489Z,14
2018-08-25T14:04:46.123Z,14.11
2018-08-25T14:05:54.765Z,14.13
2018-08-25T14:07:03.407Z,14.22
2018-08-25T14:08:12.473Z,14.33
2018-08-25T14:09:21.063Z,14.37
2018-08-25T14:10:29.976Z,14.44
2018-08-25T14:11:38.614Z,14.43
2018-08-25T14:12:47.529Z,14.44
2018-08-25T14:13:56.171Z,14.4
2018-08-25T14:15:04.821Z,14.48
2018-08-25T14:16:13.563Z,14.41
2018-08-25T14:17:22.631Z,14.52
2018-08-25T14:18:31.272Z,14.51
2018-08-25T14:19:39.919Z,14.58
2018-08-25T14:20:48.560Z,14.58
2018-08-25T14:21:57.206Z,14.58
2018-08-25T14:23:05.851Z,14.66
2018-08-25T14:24:14.755Z,14.71
2018-08-25T14:25:23.401Z,14.77
2018-08-25T14:26:32.302Z,14.92
2018-08-25T14:27:40.951Z,14.86
2018-08-25T14:28:49.624Z,14.9
2018-08-25T14:29:58.250Z,14.92
2018-08-25T14:31:06.883Z,15.08
2018-08-25T14:32:15.535Z,15.1
2018-08-25T14:33:24.173Z,15.15
2018-08-25T14:34:32.828Z,15.17
2018-08-25T14:35:41.465Z,15.18
2018-08-25T14:36:50.385Z,15.3
2018-08-25T14:37:59.032Z,15.39
2018-08-25T14:39:07.683Z,15.43
2018-08-25T14:40:16.328Z,15.43
2018-08-25T14:41:25.499Z,15.52
2018-08-25T14:42:34.142Z,15.55
2018-08-25T14:43:42.785Z,15.55
2018-08-25T14:44:51.431Z,15.59
2018-08-25T14:46:00.076Z,15.48
2018-08-25T14:47:08.788Z,15.57
2018-08-25T14:48:17.661Z,15.47